sensor_id;sensor_type;location;lat;lon;timestamp;temperature;humidity
23715;DHT22;12036;50.858;4.472;2024-02-21T00:01:39;10.30;99.90
23715;DHT22;12036;50.858;4.472;2024-02-21T00:04:05;10.30;99.90
23715;DHT22;12036;50.858;4.472;2024-02-21T00:06:31;10.20;99.90
23715;DHT22;12036;50.858;4.472;2024-02-21T00:08:58;10.20;99.90
23715;DHT22;12036;50.858;4.472;2024-02-21T00:11:23;10.20;99.90
23715;DHT22;12036;50.858;4.472;2024-02-21T00:13:49;10.30;99.90
23715;DHT22;12036;50.858;4.472;2024-02-21T00:16:16;10.30;99.90
23715;DHT22;12036;50.858;4.472;2024-02-21T00:18:42;10.40;99.90
23715;DHT22;12036;50.858;4.472;2024-02-21T00:21:08;10.40;99.90
23715;DHT22;12036;50.858;4.472;2024-02-21T00:23:34;10.30;99.90
23715;DHT22;12036;50.858;4.472;2024-02-21T00:25:59;10.20;99.90
23715;DHT22;12036;50.858;4.472;2024-02-21T00:28:25;10.10;99.90
23715;DHT22;12036;50.858;4.472;2024-02-21T00:30:50;10.10;99.90
23715;DHT22;12036;50.858;4.472;2024-02-21T00:33:18;10.20;99.90
23715;DHT22;12036;50.858;4.472;2024-02-21T00:35:44;10.20;99.90
23715;DHT22;12036;50.858;4.472;2024-02-21T00:38:10;10.30;99.90
23715;DHT22;12036;50.858;4.472;2024-02-21T00:40:35;10.20;99.90
23715;DHT22;12036;50.858;4.472;2024-02-21T00:43:01;10.10;99.90
23715;DHT22;12036;50.858;4.472;2024-02-21T00:45:27;10.20;99.90
23715;DHT22;12036;50.858;4.472;2024-02-21T00:47:52;10.20;99.90
23715;DHT22;12036;50.858;4.472;2024-02-21T00:50:18;10.10;99.90
23715;DHT22;12036;50.858;4.472;2024-02-21T00:52:43;10.10;99.90
23715;DHT22;12036;50.858;4.472;2024-02-21T00:55:09;10.20;99.90
23715;DHT22;12036;50.858;4.472;2024-02-21T00:57:35;10.20;99.90
23715;DHT22;12036;50.858;4.472;2024-02-21T01:00:03;10.20;99.90
23715;DHT22;12036;50.858;4.472;2024-02-21T01:02:29;10.20;99.90
23715;DHT22;12036;50.858;4.472;2024-02-21T01:04:57;10.10;99.90
23715;DHT22;12036;50.858;4.472;2024-02-21T01:07:22;10.10;99.90
23715;DHT22;12036;50.858;4.472;2024-02-21T01:09:48;10.00;99.90
23715;DHT22;12036;50.858;4.472;2024-02-21T01:12:14;10.00;99.90
23715;DHT22;12036;50.858;4.472;2024-02-21T01:14:39;9.90;99.90
23715;DHT22;12036;50.858;4.472;2024-02-21T01:17:05;9.90;99.90
23715;DHT22;12036;50.858;4.472;2024-02-21T01:19:31;9.80;99.90
23715;DHT22;12036;50.858;4.472;2024-02-21T01:21:57;9.80;99.90
23715;DHT22;12036;50.858;4.472;2024-02-21T01:24:23;9.90;99.90
23715;DHT22;12036;50.858;4.472;2024-02-21T01:26:49;9.80;99.90
23715;DHT22;12036;50.858;4.472;2024-02-21T01:29:15;9.80;99.90
23715;DHT22;12036;50.858;4.472;2024-02-21T01:31:41;9.90;99.90
23715;DHT22;12036;50.858;4.472;2024-02-21T01:34:06;9.80;99.90
23715;DHT22;12036;50.858;4.472;2024-02-21T01:36:32;9.80;99.90
23715;DHT22;12036;50.858;4.472;2024-02-21T01:38:58;9.70;99.90
23715;DHT22;12036;50.858;4.472;2024-02-21T01:41:23;9.60;99.90
23715;DHT22;12036;50.858;4.472;2024-02-21T01:43:50;9.50;99.90
23715;DHT22;12036;50.858;4.472;2024-02-21T01:46:15;9.40;99.90
23715;DHT22;12036;50.858;4.472;2024-02-21T01:48:41;9.40;99.90
23715;DHT22;12036;50.858;4.472;2024-02-21T01:51:07;9.30;99.90
23715;DHT22;12036;50.858;4.472;2024-02-21T01:53:38;9.20;99.90
23715;DHT22;12036;50.858;4.472;2024-02-21T01:56:06;9.20;99.90
23715;DHT22;12036;50.858;4.472;2024-02-21T01:58:32;9.20;99.90
23715;DHT22;12036;50.858;4.472;2024-02-21T02:01:02;9.20;99.90
23715;DHT22;12036;50.858;4.472;2024-02-21T02:03:28;9.20;99.90
23715;DHT22;12036;50.858;4.472;2024-02-21T02:05:55;9.20;99.90
23715;DHT22;12036;50.858;4.472;2024-02-21T02:08:21;9.20;99.90
23715;DHT22;12036;50.858;4.472;2024-02-21T02:10:49;9.20;99.90
23715;DHT22;12036;50.858;4.472;2024-02-21T02:13:15;9.30;99.90
23715;DHT22;12036;50.858;4.472;2024-02-21T02:15:46;9.30;99.90
23715;DHT22;12036;50.858;4.472;2024-02-21T02:18:13;9.40;99.90
23715;DHT22;12036;50.858;4.472;2024-02-21T02:20:39;9.40;99.90
23715;DHT22;12036;50.858;4.472;2024-02-21T02:23:11;9.40;99.90
23715;DHT22;12036;50.858;4.472;2024-02-21T02:25:37;9.40;99.90
23715;DHT22;12036;50.858;4.472;2024-02-21T02:28:07;9.50;99.90
23715;DHT22;12036;50.858;4.472;2024-02-21T02:30:34;9.50;99.90
23715;DHT22;12036;50.858;4.472;2024-02-21T02:33:04;9.40;99.90
23715;DHT22;12036;50.858;4.472;2024-02-21T02:35:30;9.50;99.90
23715;DHT22;12036;50.858;4.472;2024-02-21T02:37:56;9.50;99.90
23715;DHT22;12036;50.858;4.472;2024-02-21T02:40:22;9.60;99.90
23715;DHT22;12036;50.858;4.472;2024-02-21T02:42:48;9.50;99.90
23715;DHT22;12036;50.858;4.472;2024-02-21T02:45:15;9.60;99.90
23715;DHT22;12036;50.858;4.472;2024-02-21T02:47:40;9.50;99.90
23715;DHT22;12036;50.858;4.472;2024-02-21T02:50:07;9.50;99.90
23715;DHT22;12036;50.858;4.472;2024-02-21T02:52:33;9.60;99.90
23715;DHT22;12036;50.858;4.472;2024-02-21T02:54:59;9.50;99.90
23715;DHT22;12036;50.858;4.472;2024-02-21T02:57:24;9.60;99.90
23715;DHT22;12036;50.858;4.472;2024-02-21T02:59:51;9.50;99.90
23715;DHT22;12036;50.858;4.472;2024-02-21T03:02:17;9.60;99.90
23715;DHT22;12036;50.858;4.472;2024-02-21T03:04:43;9.60;99.90
23715;DHT22;12036;50.858;4.472;2024-02-21T03:07:09;9.60;99.90
23715;DHT22;12036;50.858;4.472;2024-02-21T03:09:37;9.60;99.90
23715;DHT22;12036;50.858;4.472;2024-02-21T03:12:03;9.70;99.90
23715;DHT22;12036;50.858;4.472;2024-02-21T03:14:29;9.70;99.90
23715;DHT22;12036;50.858;4.472;2024-02-21T03:16:55;9.70;99.90
23715;DHT22;12036;50.858;4.472;2024-02-21T03:19:21;9.70;99.90
23715;DHT22;12036;50.858;4.472;2024-02-21T03:21:48;9.70;99.90
23715;DHT22;12036;50.858;4.472;2024-02-21T03:24:15;9.60;99.90
23715;DHT22;12036;50.858;4.472;2024-02-21T03:26:41;9.60;99.90
23715;DHT22;12036;50.858;4.472;2024-02-21T03:29:07;9.60;99.90
23715;DHT22;12036;50.858;4.472;2024-02-21T03:31:33;9.60;99.90
23715;DHT22;12036;50.858;4.472;2024-02-21T03:33:58;9.70;99.90
23715;DHT22;12036;50.858;4.472;2024-02-21T03:36:24;9.70;99.90
23715;DHT22;12036;50.858;4.472;2024-02-21T03:38:50;9.70;99.90
23715;DHT22;12036;50.858;4.472;2024-02-21T03:41:16;9.70;99.90
23715;DHT22;12036;50.858;4.472;2024-02-21T03:43:42;9.70;99.90
23715;DHT22;12036;50.858;4.472;2024-02-21T03:46:08;9.60;99.90
23715;DHT22;12036;50.858;4.472;2024-02-21T03:48:34;9.60;99.90
23715;DHT22;12036;50.858;4.472;2024-02-21T03:50:59;9.60;99.90
23715;DHT22;12036;50.858;4.472;2024-02-21T03:53:25;9.50;99.90
23715;DHT22;12036;50.858;4.472;2024-02-21T03:55:50;9.50;99.90
23715;DHT22;12036;50.858;4.472;2024-02-21T03:58:16;9.40;99.90
23715;DHT22;12036;50.858;4.472;2024-02-21T04:00:42;9.40;99.90
23715;DHT22;12036;50.858;4.472;2024-02-21T04:03:07;9.40;99.90
23715;DHT22;12036;50.858;4.472;2024-02-21T04:05:33;9.40;99.90
23715;DHT22;12036;50.858;4.472;2024-02-21T04:07:59;9.30;99.90
23715;DHT22;12036;50.858;4.472;2024-02-21T04:10:24;9.30;99.90
23715;DHT22;12036;50.858;4.472;2024-02-21T04:12:50;9.30;99.90
23715;DHT22;12036;50.858;4.472;2024-02-21T04:15:18;9.30;99.90
23715;DHT22;12036;50.858;4.472;2024-02-21T04:17:44;9.30;99.90
23715;DHT22;12036;50.858;4.472;2024-02-21T04:20:15;9.20;99.90
23715;DHT22;12036;50.858;4.472;2024-02-21T04:22:42;9.20;99.90
23715;DHT22;12036;50.858;4.472;2024-02-21T04:25:08;9.30;99.90
23715;DHT22;12036;50.858;4.472;2024-02-21T04:27:33;9.30;99.90
23715;DHT22;12036;50.858;4.472;2024-02-21T04:29:59;9.20;99.90
23715;DHT22;12036;50.858;4.472;2024-02-21T04:32:25;9.20;99.90
23715;DHT22;12036;50.858;4.472;2024-02-21T04:34:53;9.30;99.90
23715;DHT22;12036;50.858;4.472;2024-02-21T04:37:18;9.30;99.90
23715;DHT22;12036;50.858;4.472;2024-02-21T04:39:44;9.40;99.90
23715;DHT22;12036;50.858;4.472;2024-02-21T04:42:10;9.40;99.90
23715;DHT22;12036;50.858;4.472;2024-02-21T04:44:36;9.40;99.90
23715;DHT22;12036;50.858;4.472;2024-02-21T04:47:01;9.30;99.90
23715;DHT22;12036;50.858;4.472;2024-02-21T04:49:29;9.30;99.90
23715;DHT22;12036;50.858;4.472;2024-02-21T04:51:54;9.20;99.90
23715;DHT22;12036;50.858;4.472;2024-02-21T04:54:20;9.20;99.90
23715;DHT22;12036;50.858;4.472;2024-02-21T04:56:46;9.30;99.90
23715;DHT22;12036;50.858;4.472;2024-02-21T04:59:11;9.30;99.90
23715;DHT22;12036;50.858;4.472;2024-02-21T05:01:37;9.40;99.90
23715;DHT22;12036;50.858;4.472;2024-02-21T05:04:02;9.40;99.90
23715;DHT22;12036;50.858;4.472;2024-02-21T05:06:28;9.40;99.90
23715;DHT22;12036;50.858;4.472;2024-02-21T05:08:54;9.40;99.90
23715;DHT22;12036;50.858;4.472;2024-02-21T05:11:21;9.30;99.90
23715;DHT22;12036;50.858;4.472;2024-02-21T05:13:50;9.40;99.90
23715;DHT22;12036;50.858;4.472;2024-02-21T05:16:15;9.40;99.90
23715;DHT22;12036;50.858;4.472;2024-02-21T05:18:41;9.50;99.90
23715;DHT22;12036;50.858;4.472;2024-02-21T05:21:08;9.40;99.90
23715;DHT22;12036;50.858;4.472;2024-02-21T05:23:33;9.50;99.90
23715;DHT22;12036;50.858;4.472;2024-02-21T05:25:59;9.50;99.90
23715;DHT22;12036;50.858;4.472;2024-02-21T05:28:25;9.50;99.90
23715;DHT22;12036;50.858;4.472;2024-02-21T05:30:50;9.60;99.90
23715;DHT22;12036;50.858;4.472;2024-02-21T05:33:16;9.50;99.90
23715;DHT22;12036;50.858;4.472;2024-02-21T05:35:47;9.50;99.90
23715;DHT22;12036;50.858;4.472;2024-02-21T05:38:13;9.50;99.90
23715;DHT22;12036;50.858;4.472;2024-02-21T05:40:39;9.50;99.90
23715;DHT22;12036;50.858;4.472;2024-02-21T05:43:06;9.50;99.90
23715;DHT22;12036;50.858;4.472;2024-02-21T05:45:32;9.50;99.90
23715;DHT22;12036;50.858;4.472;2024-02-21T05:47:58;9.50;99.90
23715;DHT22;12036;50.858;4.472;2024-02-21T05:50:23;9.50;99.90
23715;DHT22;12036;50.858;4.472;2024-02-21T05:52:51;9.50;99.90
23715;DHT22;12036;50.858;4.472;2024-02-21T05:55:18;9.50;99.90
23715;DHT22;12036;50.858;4.472;2024-02-21T05:57:43;9.50;99.90
23715;DHT22;12036;50.858;4.472;2024-02-21T06:00:09;9.50;99.90
23715;DHT22;12036;50.858;4.472;2024-02-21T06:02:35;9.50;99.90
23715;DHT22;12036;50.858;4.472;2024-02-21T06:05:01;9.60;99.90
23715;DHT22;12036;50.858;4.472;2024-02-21T06:07:27;9.60;99.90
23715;DHT22;12036;50.858;4.472;2024-02-21T06:09:52;9.60;99.90
23715;DHT22;12036;50.858;4.472;2024-02-21T06:12:18;9.50;99.90
23715;DHT22;12036;50.858;4.472;2024-02-21T06:14:44;9.40;99.90
23715;DHT22;12036;50.858;4.472;2024-02-21T06:17:10;9.40;99.90
23715;DHT22;12036;50.858;4.472;2024-02-21T06:19:35;9.50;99.90
23715;DHT22;12036;50.858;4.472;2024-02-21T06:22:01;9.50;99.90
23715;DHT22;12036;50.858;4.472;2024-02-21T06:24:27;9.50;99.90
23715;DHT22;12036;50.858;4.472;2024-02-21T06:26:52;9.50;99.90
23715;DHT22;12036;50.858;4.472;2024-02-21T06:29:18;9.40;99.90
23715;DHT22;12036;50.858;4.472;2024-02-21T06:31:44;9.40;99.90
23715;DHT22;12036;50.858;4.472;2024-02-21T06:34:09;9.50;99.90
23715;DHT22;12036;50.858;4.472;2024-02-21T06:36:35;9.50;99.90
23715;DHT22;12036;50.858;4.472;2024-02-21T06:39:00;9.60;99.90
23715;DHT22;12036;50.858;4.472;2024-02-21T06:41:26;9.50;99.90
23715;DHT22;12036;50.858;4.472;2024-02-21T06:43:52;9.40;99.90
23715;DHT22;12036;50.858;4.472;2024-02-21T06:46:28;9.50;99.90
23715;DHT22;12036;50.858;4.472;2024-02-21T06:48:59;9.50;99.90
23715;DHT22;12036;50.858;4.472;2024-02-21T06:51:26;9.50;99.90
23715;DHT22;12036;50.858;4.472;2024-02-21T06:53:52;9.50;99.90
23715;DHT22;12036;50.858;4.472;2024-02-21T06:56:17;9.50;99.90
23715;DHT22;12036;50.858;4.472;2024-02-21T06:58:43;9.50;99.90
23715;DHT22;12036;50.858;4.472;2024-02-21T07:01:09;9.50;99.90
23715;DHT22;12036;50.858;4.472;2024-02-21T07:03:35;9.50;99.90
23715;DHT22;12036;50.858;4.472;2024-02-21T07:06:01;9.40;99.90
23715;DHT22;12036;50.858;4.472;2024-02-21T07:08:27;9.40;99.90
23715;DHT22;12036;50.858;4.472;2024-02-21T07:10:52;9.40;99.90
23715;DHT22;12036;50.858;4.472;2024-02-21T07:13:18;9.40;99.90
23715;DHT22;12036;50.858;4.472;2024-02-21T07:15:44;9.40;99.90
23715;DHT22;12036;50.858;4.472;2024-02-21T07:18:09;9.40;99.90
23715;DHT22;12036;50.858;4.472;2024-02-21T07:20:35;9.30;99.90
23715;DHT22;12036;50.858;4.472;2024-02-21T07:23:03;9.30;99.90
23715;DHT22;12036;50.858;4.472;2024-02-21T07:25:28;9.10;99.90
23715;DHT22;12036;50.858;4.472;2024-02-21T07:27:54;9.20;99.90
23715;DHT22;12036;50.858;4.472;2024-02-21T07:30:20;9.10;99.90
23715;DHT22;12036;50.858;4.472;2024-02-21T07:32:45;9.20;99.90
23715;DHT22;12036;50.858;4.472;2024-02-21T07:35:14;9.10;99.90
23715;DHT22;12036;50.858;4.472;2024-02-21T07:37:39;9.20;99.90
23715;DHT22;12036;50.858;4.472;2024-02-21T07:40:13;9.10;99.90
23715;DHT22;12036;50.858;4.472;2024-02-21T07:42:39;9.10;99.90
23715;DHT22;12036;50.858;4.472;2024-02-21T07:45:09;9.10;99.90
23715;DHT22;12036;50.858;4.472;2024-02-21T07:47:36;9.10;99.90
23715;DHT22;12036;50.858;4.472;2024-02-21T07:50:02;9.10;99.90
23715;DHT22;12036;50.858;4.472;2024-02-21T07:52:28;9.10;99.90
23715;DHT22;12036;50.858;4.472;2024-02-21T07:54:54;9.10;99.90
23715;DHT22;12036;50.858;4.472;2024-02-21T07:57:19;9.20;99.90
23715;DHT22;12036;50.858;4.472;2024-02-21T07:59:45;9.30;99.90
23715;DHT22;12036;50.858;4.472;2024-02-21T08:02:16;9.30;99.90
23715;DHT22;12036;50.858;4.472;2024-02-21T08:04:41;9.30;99.90
23715;DHT22;12036;50.858;4.472;2024-02-21T08:07:08;9.40;99.90
23715;DHT22;12036;50.858;4.472;2024-02-21T08:09:34;9.40;99.90
23715;DHT22;12036;50.858;4.472;2024-02-21T08:12:00;9.40;99.90
23715;DHT22;12036;50.858;4.472;2024-02-21T08:14:25;9.40;99.90
23715;DHT22;12036;50.858;4.472;2024-02-21T08:16:51;9.50;99.90
23715;DHT22;12036;50.858;4.472;2024-02-21T08:19:21;9.50;99.90
23715;DHT22;12036;50.858;4.472;2024-02-21T08:21:48;9.50;99.90
23715;DHT22;12036;50.858;4.472;2024-02-21T08:24:16;9.50;99.90
23715;DHT22;12036;50.858;4.472;2024-02-21T08:26:45;9.50;99.90
23715;DHT22;12036;50.858;4.472;2024-02-21T08:29:14;9.60;99.90
23715;DHT22;12036;50.858;4.472;2024-02-21T08:31:39;9.60;99.90
23715;DHT22;12036;50.858;4.472;2024-02-21T08:34:05;9.70;99.90
23715;DHT22;12036;50.858;4.472;2024-02-21T08:36:35;9.60;99.90
23715;DHT22;12036;50.858;4.472;2024-02-21T08:39:01;9.60;99.90
23715;DHT22;12036;50.858;4.472;2024-02-21T08:41:30;9.60;99.90
23715;DHT22;12036;50.858;4.472;2024-02-21T08:43:56;9.70;99.90
23715;DHT22;12036;50.858;4.472;2024-02-21T08:46:22;9.80;99.90
23715;DHT22;12036;50.858;4.472;2024-02-21T08:48:50;9.80;99.90
23715;DHT22;12036;50.858;4.472;2024-02-21T08:51:16;9.70;99.90
23715;DHT22;12036;50.858;4.472;2024-02-21T08:53:43;9.80;99.90
23715;DHT22;12036;50.858;4.472;2024-02-21T08:56:09;9.80;99.90
23715;DHT22;12036;50.858;4.472;2024-02-21T08:58:38;9.80;99.90
23715;DHT22;12036;50.858;4.472;2024-02-21T09:01:05;9.80;99.90
23715;DHT22;12036;50.858;4.472;2024-02-21T09:03:35;9.90;99.90
23715;DHT22;12036;50.858;4.472;2024-02-21T09:06:01;9.90;99.90
23715;DHT22;12036;50.858;4.472;2024-02-21T09:08:27;9.80;99.90
23715;DHT22;12036;50.858;4.472;2024-02-21T09:10:53;9.80;99.90
23715;DHT22;12036;50.858;4.472;2024-02-21T09:13:19;9.80;99.90
23715;DHT22;12036;50.858;4.472;2024-02-21T09:15:44;9.90;99.90
23715;DHT22;12036;50.858;4.472;2024-02-21T09:18:10;10.00;99.90
23715;DHT22;12036;50.858;4.472;2024-02-21T09:20:36;10.00;99.90
23715;DHT22;12036;50.858;4.472;2024-02-21T09:23:01;10.10;99.90
23715;DHT22;12036;50.858;4.472;2024-02-21T09:25:27;10.00;99.90
23715;DHT22;12036;50.858;4.472;2024-02-21T09:27:54;10.00;99.90
23715;DHT22;12036;50.858;4.472;2024-02-21T09:30:20;10.10;99.90
23715;DHT22;12036;50.858;4.472;2024-02-21T09:32:46;10.10;99.90
23715;DHT22;12036;50.858;4.472;2024-02-21T09:35:12;10.10;99.90
23715;DHT22;12036;50.858;4.472;2024-02-21T09:37:41;10.30;99.90
23715;DHT22;12036;50.858;4.472;2024-02-21T09:40:07;10.30;99.90
23715;DHT22;12036;50.858;4.472;2024-02-21T09:42:41;10.30;99.90
23715;DHT22;12036;50.858;4.472;2024-02-21T09:45:24;10.50;99.90
23715;DHT22;12036;50.858;4.472;2024-02-21T09:48:12;10.60;99.90
23715;DHT22;12036;50.858;4.472;2024-02-21T09:50:43;10.70;99.90
23715;DHT22;12036;50.858;4.472;2024-02-21T09:53:11;10.70;99.90
23715;DHT22;12036;50.858;4.472;2024-02-21T09:55:38;10.80;99.90
23715;DHT22;12036;50.858;4.472;2024-02-21T09:58:07;10.90;99.90
23715;DHT22;12036;50.858;4.472;2024-02-21T10:00:33;10.80;99.90
23715;DHT22;12036;50.858;4.472;2024-02-21T10:02:59;10.80;99.90
23715;DHT22;12036;50.858;4.472;2024-02-21T10:05:24;10.80;99.90
23715;DHT22;12036;50.858;4.472;2024-02-21T10:07:51;10.80;99.90
23715;DHT22;12036;50.858;4.472;2024-02-21T10:10:17;10.80;99.90
23715;DHT22;12036;50.858;4.472;2024-02-21T10:12:52;10.90;99.90
23715;DHT22;12036;50.858;4.472;2024-02-21T10:15:24;10.90;99.90
23715;DHT22;12036;50.858;4.472;2024-02-21T10:18:01;10.90;99.90
23715;DHT22;12036;50.858;4.472;2024-02-21T10:20:27;10.80;99.90
23715;DHT22;12036;50.858;4.472;2024-02-21T10:23:05;10.90;99.90
23715;DHT22;12036;50.858;4.472;2024-02-21T10:25:35;10.90;99.90
23715;DHT22;12036;50.858;4.472;2024-02-21T10:28:02;11.10;99.90
23715;DHT22;12036;50.858;4.472;2024-02-21T10:30:29;11.30;99.90
23715;DHT22;12036;50.858;4.472;2024-02-21T10:32:55;11.30;99.90
23715;DHT22;12036;50.858;4.472;2024-02-21T10:35:33;11.30;99.90
23715;DHT22;12036;50.858;4.472;2024-02-21T10:38:00;11.20;99.90
23715;DHT22;12036;50.858;4.472;2024-02-21T10:40:27;11.10;99.90
23715;DHT22;12036;50.858;4.472;2024-02-21T10:42:58;11.00;99.90
23715;DHT22;12036;50.858;4.472;2024-02-21T10:45:32;11.00;99.90
23715;DHT22;12036;50.858;4.472;2024-02-21T10:48:20;11.20;99.90
23715;DHT22;12036;50.858;4.472;2024-02-21T10:51:03;11.30;99.90
23715;DHT22;12036;50.858;4.472;2024-02-21T10:56:31;11.30;99.90
23715;DHT22;12036;50.858;4.472;2024-02-21T10:59:01;11.30;99.90
23715;DHT22;12036;50.858;4.472;2024-02-21T11:01:28;11.30;99.90
23715;DHT22;12036;50.858;4.472;2024-02-21T11:03:56;11.40;99.90
23715;DHT22;12036;50.858;4.472;2024-02-21T11:06:22;11.40;99.90
23715;DHT22;12036;50.858;4.472;2024-02-21T11:09:05;11.50;99.90
23715;DHT22;12036;50.858;4.472;2024-02-21T11:11:35;11.40;99.90
23715;DHT22;12036;50.858;4.472;2024-02-21T11:14:18;11.40;99.90
23715;DHT22;12036;50.858;4.472;2024-02-21T11:16:44;11.60;99.90
23715;DHT22;12036;50.858;4.472;2024-02-21T11:21:44;11.70;99.90
23715;DHT22;12036;50.858;4.472;2024-02-21T11:24:10;11.70;99.90
23715;DHT22;12036;50.858;4.472;2024-02-21T11:26:37;11.70;99.90
23715;DHT22;12036;50.858;4.472;2024-02-21T11:29:03;11.50;99.90
23715;DHT22;12036;50.858;4.472;2024-02-21T11:31:43;11.40;99.90
23715;DHT22;12036;50.858;4.472;2024-02-21T11:34:10;11.30;99.90
23715;DHT22;12036;50.858;4.472;2024-02-21T11:36:46;11.40;99.90
23715;DHT22;12036;50.858;4.472;2024-02-21T11:39:12;11.30;99.90
23715;DHT22;12036;50.858;4.472;2024-02-21T11:41:38;11.50;99.90
23715;DHT22;12036;50.858;4.472;2024-02-21T11:44:03;11.50;99.90
23715;DHT22;12036;50.858;4.472;2024-02-21T11:46:29;11.50;99.90
23715;DHT22;12036;50.858;4.472;2024-02-21T11:48:55;11.40;99.90
23715;DHT22;12036;50.858;4.472;2024-02-21T11:51:26;11.40;99.90
23715;DHT22;12036;50.858;4.472;2024-02-21T11:53:53;11.40;99.90
23715;DHT22;12036;50.858;4.472;2024-02-21T11:56:19;11.30;99.90
23715;DHT22;12036;50.858;4.472;2024-02-21T11:58:46;11.20;99.90
23715;DHT22;12036;50.858;4.472;2024-02-21T12:01:13;11.30;99.90
23715;DHT22;12036;50.858;4.472;2024-02-21T12:03:39;11.20;99.90
23715;DHT22;12036;50.858;4.472;2024-02-21T12:06:07;11.20;99.90
23715;DHT22;12036;50.858;4.472;2024-02-21T12:08:43;11.30;99.90
23715;DHT22;12036;50.858;4.472;2024-02-21T12:11:22;11.40;99.90
23715;DHT22;12036;50.858;4.472;2024-02-21T12:14:01;11.30;99.90
23715;DHT22;12036;50.858;4.472;2024-02-21T12:16:29;11.30;99.90
23715;DHT22;12036;50.858;4.472;2024-02-21T12:18:59;11.10;99.90
23715;DHT22;12036;50.858;4.472;2024-02-21T12:21:35;11.00;99.90
23715;DHT22;12036;50.858;4.472;2024-02-21T12:24:24;11.20;99.90
23715;DHT22;12036;50.858;4.472;2024-02-21T12:26:50;11.20;99.90
23715;DHT22;12036;50.858;4.472;2024-02-21T12:29:18;11.10;99.90
23715;DHT22;12036;50.858;4.472;2024-02-21T12:31:44;11.20;99.90
23715;DHT22;12036;50.858;4.472;2024-02-21T12:34:10;11.10;99.90
23715;DHT22;12036;50.858;4.472;2024-02-21T12:36:43;11.20;99.90
23715;DHT22;12036;50.858;4.472;2024-02-21T12:39:12;11.20;99.90
23715;DHT22;12036;50.858;4.472;2024-02-21T12:41:38;11.10;99.90
23715;DHT22;12036;50.858;4.472;2024-02-21T12:44:05;11.10;99.90
23715;DHT22;12036;50.858;4.472;2024-02-21T12:46:34;11.10;99.90
23715;DHT22;12036;50.858;4.472;2024-02-21T12:49:03;11.10;99.90
23715;DHT22;12036;50.858;4.472;2024-02-21T12:51:30;11.00;99.90
23715;DHT22;12036;50.858;4.472;2024-02-21T12:53:56;11.10;99.90
23715;DHT22;12036;50.858;4.472;2024-02-21T12:56:22;11.10;99.90
23715;DHT22;12036;50.858;4.472;2024-02-21T12:58:48;11.10;99.90
23715;DHT22;12036;50.858;4.472;2024-02-21T13:01:13;11.20;99.90
23715;DHT22;12036;50.858;4.472;2024-02-21T13:03:39;11.20;99.90
23715;DHT22;12036;50.858;4.472;2024-02-21T13:06:05;11.20;99.90
23715;DHT22;12036;50.858;4.472;2024-02-21T13:08:33;11.20;99.90
23715;DHT22;12036;50.858;4.472;2024-02-21T13:11:00;11.30;99.90
23715;DHT22;12036;50.858;4.472;2024-02-21T13:13:26;11.30;99.90
23715;DHT22;12036;50.858;4.472;2024-02-21T13:15:52;11.30;99.90
23715;DHT22;12036;50.858;4.472;2024-02-21T13:18:17;11.20;99.90
23715;DHT22;12036;50.858;4.472;2024-02-21T13:20:43;11.20;99.90
23715;DHT22;12036;50.858;4.472;2024-02-21T13:23:09;11.30;99.90
23715;DHT22;12036;50.858;4.472;2024-02-21T13:25:34;11.40;99.90
23715;DHT22;12036;50.858;4.472;2024-02-21T13:28:03;11.40;99.90
23715;DHT22;12036;50.858;4.472;2024-02-21T13:30:29;11.40;99.90
23715;DHT22;12036;50.858;4.472;2024-02-21T13:32:54;11.40;99.90
23715;DHT22;12036;50.858;4.472;2024-02-21T13:35:20;11.40;99.90
23715;DHT22;12036;50.858;4.472;2024-02-21T13:37:46;11.50;99.90
23715;DHT22;12036;50.858;4.472;2024-02-21T13:40:12;11.40;99.90
23715;DHT22;12036;50.858;4.472;2024-02-21T13:42:40;11.40;99.90
23715;DHT22;12036;50.858;4.472;2024-02-21T13:45:06;11.40;99.90
23715;DHT22;12036;50.858;4.472;2024-02-21T13:47:33;11.30;99.90
23715;DHT22;12036;50.858;4.472;2024-02-21T13:50:01;11.40;99.90
23715;DHT22;12036;50.858;4.472;2024-02-21T13:52:30;11.10;99.90
23715;DHT22;12036;50.858;4.472;2024-02-21T13:54:56;11.10;99.90
23715;DHT22;12036;50.858;4.472;2024-02-21T13:57:22;11.00;99.90
23715;DHT22;12036;50.858;4.472;2024-02-21T13:59:47;11.00;99.90
23715;DHT22;12036;50.858;4.472;2024-02-21T14:02:13;10.90;99.90
23715;DHT22;12036;50.858;4.472;2024-02-21T14:04:39;10.90;99.90
23715;DHT22;12036;50.858;4.472;2024-02-21T14:07:04;10.70;99.90
23715;DHT22;12036;50.858;4.472;2024-02-21T14:09:30;10.60;99.90
23715;DHT22;12036;50.858;4.472;2024-02-21T14:11:56;10.60;99.90
23715;DHT22;12036;50.858;4.472;2024-02-21T14:14:21;10.70;99.90
23715;DHT22;12036;50.858;4.472;2024-02-21T14:16:47;10.70;99.90
23715;DHT22;12036;50.858;4.472;2024-02-21T14:19:16;10.70;99.90
23715;DHT22;12036;50.858;4.472;2024-02-21T14:21:42;10.60;99.90
23715;DHT22;12036;50.858;4.472;2024-02-21T14:24:07;10.60;99.90
23715;DHT22;12036;50.858;4.472;2024-02-21T14:26:33;10.50;99.90
23715;DHT22;12036;50.858;4.472;2024-02-21T14:29:01;10.50;99.90
23715;DHT22;12036;50.858;4.472;2024-02-21T14:31:31;10.50;99.90
23715;DHT22;12036;50.858;4.472;2024-02-21T14:33:57;10.40;99.90
23715;DHT22;12036;50.858;4.472;2024-02-21T14:36:22;10.40;99.90
23715;DHT22;12036;50.858;4.472;2024-02-21T14:38:49;10.40;99.90
23715;DHT22;12036;50.858;4.472;2024-02-21T14:41:18;10.30;99.90
23715;DHT22;12036;50.858;4.472;2024-02-21T14:43:44;10.20;99.90
23715;DHT22;12036;50.858;4.472;2024-02-21T14:46:10;10.20;99.90
23715;DHT22;12036;50.858;4.472;2024-02-21T14:48:40;10.10;99.90
23715;DHT22;12036;50.858;4.472;2024-02-21T14:51:06;10.10;99.90
23715;DHT22;12036;50.858;4.472;2024-02-21T14:53:31;10.00;99.90
23715;DHT22;12036;50.858;4.472;2024-02-21T14:55:57;10.00;99.90
23715;DHT22;12036;50.858;4.472;2024-02-21T14:58:25;10.00;99.90
23715;DHT22;12036;50.858;4.472;2024-02-21T15:00:52;10.00;99.90
23715;DHT22;12036;50.858;4.472;2024-02-21T15:03:19;10.00;99.90
23715;DHT22;12036;50.858;4.472;2024-02-21T15:05:46;10.00;99.90
23715;DHT22;12036;50.858;4.472;2024-02-21T15:08:11;9.80;99.90
23715;DHT22;12036;50.858;4.472;2024-02-21T15:10:38;9.80;99.90
23715;DHT22;12036;50.858;4.472;2024-02-21T15:13:03;9.80;99.90
23715;DHT22;12036;50.858;4.472;2024-02-21T15:15:29;9.70;99.90
23715;DHT22;12036;50.858;4.472;2024-02-21T15:17:56;9.80;99.90
23715;DHT22;12036;50.858;4.472;2024-02-21T15:20:21;9.70;99.90
23715;DHT22;12036;50.858;4.472;2024-02-21T15:22:47;9.70;99.90
23715;DHT22;12036;50.858;4.472;2024-02-21T15:25:15;9.70;99.90
23715;DHT22;12036;50.858;4.472;2024-02-21T15:27:42;9.70;99.90
23715;DHT22;12036;50.858;4.472;2024-02-21T15:30:09;9.70;99.90
23715;DHT22;12036;50.858;4.472;2024-02-21T15:32:35;9.70;99.90
23715;DHT22;12036;50.858;4.472;2024-02-21T15:35:03;9.70;99.90
23715;DHT22;12036;50.858;4.472;2024-02-21T15:37:29;9.60;99.90
23715;DHT22;12036;50.858;4.472;2024-02-21T15:39:55;9.60;99.90
23715;DHT22;12036;50.858;4.472;2024-02-21T15:42:20;9.60;99.90
23715;DHT22;12036;50.858;4.472;2024-02-21T15:44:46;9.60;99.90